Time;durP1;ratioP1;P1;durP2;ratioP2;P2;SDS_P1;SDS_P2;PMS_P1;PMS_P2;Temp;Humidity;BMP_temperature;BMP_pressure;BME280_temperature;BME280_humidity;BME280_pressure;Samples;Min_cycle;Max_cycle;Signal;HPM_P1;HPM_P2
2021/03/18 00:00:29;;;;;;;7.05;2.42;;;;;;;-142.13;100.00;58370.81;4987379;28;20628;-71
2021/03/18 00:02:56;;;;;;;3.78;2.80;;;;;;;-142.13;100.00;58370.81;4971355;28;20225;-72
2021/03/18 00:05:23;;;;;;;3.58;2.10;;;;;;;-142.13;100.00;58370.81;4984871;28;20682;-72
2021/03/18 00:07:50;;;;;;;6.28;2.58;;;;;;;-142.13;100.00;58370.81;4988767;28;20226;-71
2021/03/18 00:10:17;;;;;;;6.45;3.35;;;;;;;-142.13;100.00;58370.81;4986082;28;20202;-71
2021/03/18 00:12:46;;;;;;;4.47;2.90;;;;;;;-142.13;100.00;58370.81;4981335;28;20677;-72
2021/03/18 00:15:14;;;;;;;7.10;3.20;;;;;;;-142.13;100.00;58370.81;4990102;28;20204;-73
2021/03/18 00:17:42;;;;;;;6.80;2.60;;;;;;;-142.13;100.00;58370.81;4987921;28;20221;-71
2021/03/18 00:20:11;;;;;;;5.50;2.90;;;;;;;-142.13;100.00;58370.81;4985905;28;20705;-73
2021/03/18 00:22:39;;;;;;;8.52;4.05;;;;;;;-142.13;100.00;58370.81;4990110;28;20673;-72
2021/03/18 00:25:10;;;;;;;10.25;5.38;;;;;;;-142.13;100.00;58370.81;4976850;28;20220;-73
2021/03/18 00:27:37;;;;;;;9.18;4.72;;;;;;;-142.13;100.00;58370.81;4988542;28;20221;-73
2021/03/18 00:30:07;;;;;;;7.70;4.25;;;;;;;-142.13;100.00;58370.81;4995070;28;20556;-72
2021/03/18 00:32:35;;;;;;;7.68;3.40;;;;;;;-142.13;100.00;58370.81;4990585;28;20248;-71
2021/03/18 00:35:04;;;;;;;7.95;2.83;;;;;;;-142.13;100.00;58370.81;4976623;28;20231;-68
2021/03/18 00:37:31;;;;;;;6.00;3.35;;;;;;;-142.13;100.00;58370.81;4994299;28;20221;-70
2021/03/18 00:39:59;;;;;;;10.20;3.72;;;;;;;-142.13;100.00;58370.81;4992769;28;20514;-70
2021/03/18 00:42:26;;;;;;;6.75;3.53;;;;;;;-142.13;100.00;58370.81;4990514;28;20240;-70
2021/03/18 00:44:53;;;;;;;8.07;3.47;;;;;;;-142.13;100.00;58370.81;4996107;28;20190;-70
2021/03/18 00:47:21;;;;;;;6.97;3.30;;;;;;;-142.13;100.00;58370.81;4993365;28;20299;-72
2021/03/18 00:49:48;;;;;;;6.88;3.63;;;;;;;-142.13;100.00;58370.81;4990890;28;20568;-70
2021/03/18 00:52:15;;;;;;;6.45;3.63;;;;;;;-142.13;100.00;58370.81;4990314;28;20283;-70
2021/03/18 00:54:41;;;;;;;12.27;4.25;;;;;;;-142.13;100.00;58370.81;4993999;28;20228;-70
2021/03/18 00:57:08;;;;;;;6.15;3.60;;;;;;;-142.13;100.00;58370.81;4989811;28;20644;-70
2021/03/18 00:59:35;;;;;;;7.53;3.50;;;;;;;-142.13;100.00;58370.81;4972240;28;20713;-71
2021/03/18 01:02:12;;;;;;;10.02;4.10;;;;;;;-142.13;100.00;58370.81;4974316;28;20249;-71
2021/03/18 01:04:41;;;;;;;6.47;3.25;;;;;;;-142.13;100.00;58370.81;4994010;28;20541;-72
2021/03/18 01:07:08;;;;;;;7.28;4.15;;;;;;;-142.13;100.00;58370.81;4999212;28;20601;-70
2021/03/18 01:09:35;;;;;;;6.95;3.45;;;;;;;-142.13;100.00;58370.81;4972309;28;20698;-70
2021/03/18 01:12:02;;;;;;;10.35;4.00;;;;;;;-142.13;100.00;58370.81;4991394;28;20754;-70
2021/03/18 01:14:29;;;;;;;7.63;4.07;;;;;;;-142.13;100.00;58370.81;4995402;28;20644;-70
2021/03/18 01:16:58;;;;;;;7.82;3.80;;;;;;;-142.13;100.00;58370.81;4992421;28;20911;-71
2021/03/18 01:19:26;;;;;;;9.93;4.40;;;;;;;-142.13;100.00;58370.81;4997669;28;20264;-72
2021/03/18 01:21:56;;;;;;;5.68;3.15;;;;;;;-142.13;100.00;58370.81;4991333;28;20198;-73
2021/03/18 01:24:23;;;;;;;5.95;3.20;;;;;;;-142.13;100.00;58370.81;4989850;28;20669;-71
2021/03/18 01:26:50;;;;;;;8.25;3.60;;;;;;;-142.13;100.00;58370.81;4994083;28;20601;-70
2021/03/18 01:29:17;;;;;;;12.07;4.22;;;;;;;-142.13;100.00;58370.81;4991482;28;20726;-71
2021/03/18 01:31:44;;;;;;;4.80;2.88;;;;;;;-142.13;100.00;58370.81;4992267;28;20194;-70
2021/03/18 01:34:12;;;;;;;5.80;3.53;;;;;;;-142.13;100.00;58370.81;4990559;28;20217;-71
2021/03/18 01:36:39;;;;;;;7.78;4.20;;;;;;;-142.13;100.00;58370.81;4992558;28;20185;-70
2021/03/18 01:39:15;;;;;;;6.88;3.90;;;;;;;-142.13;100.00;58370.81;4987320;28;20217;-70
2021/03/18 01:41:42;;;;;;;6.32;3.78;;;;;;;-142.13;100.00;58370.81;4985976;28;20675;-71
2021/03/18 01:44:09;;;;;;;7.25;3.47;;;;;;;-142.13;100.00;58370.81;4985586;28;20213;-71
2021/03/18 01:46:37;;;;;;;9.80;4.18;;;;;;;-142.13;100.00;58370.81;4988588;28;20190;-71
2021/03/18 01:49:05;;;;;;;11.10;4.03;;;;;;;-142.13;100.00;58370.81;4969288;28;20240;-69
2021/03/18 01:51:32;;;;;;;8.35;4.18;;;;;;;-142.13;100.00;58370.81;4985020;28;20625;-70
2021/03/18 01:53:59;;;;;;;9.02;5.22;;;;;;;-142.13;100.00;58370.81;4988465;28;20286;-71
2021/03/18 01:56:27;;;;;;;14.85;3.63;;;;;;;-142.13;100.00;58370.81;4991500;28;20606;-70
2021/03/18 01:58:54;;;;;;;15.75;4.20;;;;;;;-142.13;100.00;58370.81;4998159;28;20225;-72
2021/03/18 02:01:22;;;;;;;10.90;4.03;;;;;;;-142.13;100.00;58370.81;4988023;28;20524;-71
2021/03/18 02:03:49;;;;;;;12.88;3.58;;;;;;;-142.13;100.00;58370.81;4985284;28;20556;-72
2021/03/18 02:06:17;;;;;;;7.28;3.60;;;;;;;-142.13;100.00;58370.81;4987266;28;20293;-70
2021/03/18 02:08:44;;;;;;;7.53;4.05;;;;;;;-142.13;100.00;58370.81;4985903;28;20218;-71
2021/03/18 02:11:11;;;;;;;7.88;2.90;;;;;;;-142.13;100.00;58370.81;4987927;28;20187;-70
2021/03/18 02:13:39;;;;;;;5.28;2.90;;;;;;;-142.13;100.00;58370.81;4984363;28;20335;-71
2021/03/18 02:16:09;;;;;;;8.68;4.05;;;;;;;-142.13;100.00;58370.81;4992261;28;20627;-71
2021/03/18 02:18:47;;;;;;;11.27;3.85;;;;;;;-142.13;100.00;58370.81;4987269;28;20231;-69
2021/03/18 02:21:53;;;;;;;5.95;2.90;;;;;;;-142.13;100.00;58370.81;4968402;28;20194;-70
2021/03/18 02:24:42;;;;;;;5.88;3.28;;;;;;;-142.13;100.00;58370.81;4986005;28;20885;-68
2021/03/18 02:28:01;;;;;;;6.60;3.10;;;;;;;-142.13;100.00;58370.81;4982139;28;20556;-71
2021/03/18 02:30:56;;;;;;;8.38;4.07;;;;;;;-142.13;100.00;58370.81;4987546;28;20603;-70
2021/03/18 02:33:58;;;;;;;6.95;3.30;;;;;;;-142.13;100.00;58370.81;4987950;28;20684;-69
2021/03/18 02:36:33;;;;;;;6.25;3.58;;;;;;;-142.13;100.00;58370.81;4989398;28;20582;-70
2021/03/18 02:39:03;;;;;;;10.23;4.55;;;;;;;-142.13;100.00;58370.81;4988327;28;20221;-69
2021/03/18 02:41:35;;;;;;;4.38;3.10;;;;;;;-142.13;100.00;58370.81;4985788;28;20259;-71
2021/03/18 02:44:09;;;;;;;9.02;3.63;;;;;;;-142.13;100.00;58370.81;4974175;28;20213;-70
2021/03/18 02:46:44;;;;;;;13.82;4.05;;;;;;;-142.13;100.00;58370.81;4987267;28;20628;-71
2021/03/18 02:49:13;;;;;;;7.60;3.90;;;;;;;-142.13;100.00;58370.81;4971892;28;20216;-70
2021/03/18 02:51:43;;;;;;;7.90;3.58;;;;;;;-142.13;100.00;58370.81;4987972;28;20197;-71
2021/03/18 02:54:13;;;;;;;5.75;3.20;;;;;;;-142.13;100.00;58370.81;4976012;28;20221;-70
2021/03/18 02:56:45;;;;;;;9.20;3.60;;;;;;;-142.13;100.00;58370.81;4984476;28;20609;-70
2021/03/18 02:59:16;;;;;;;12.38;5.70;;;;;;;-142.13;100.00;58370.81;4985756;28;20311;-71
2021/03/18 03:01:45;;;;;;;7.05;3.22;;;;;;;-142.13;100.00;58370.81;4986469;28;20513;-70
2021/03/18 03:04:14;;;;;;;6.78;3.15;;;;;;;-142.13;100.00;58370.81;4986935;28;20708;-70
2021/03/18 03:06:43;;;;;;;4.22;3.00;;;;;;;-142.13;100.00;58370.81;4969224;28;20235;-71
2021/03/18 03:09:10;;;;;;;7.68;3.75;;;;;;;-142.13;100.00;58370.81;4990250;28;20635;-71
2021/03/18 03:11:40;;;;;;;7.70;3.80;;;;;;;-142.13;100.00;58370.81;4994081;28;20584;-71
2021/03/18 03:14:09;;;;;;;8.68;3.97;;;;;;;-142.13;100.00;58370.81;4983984;28;20194;-70
2021/03/18 03:16:39;;;;;;;7.90;3.00;;;;;;;-142.13;100.00;58370.81;4987120;28;20454;-70
2021/03/18 03:19:08;;;;;;;13.60;4.32;;;;;;;-142.13;100.00;58370.81;4989296;28;20480;-71
2021/03/18 03:21:36;;;;;;;7.78;4.20;;;;;;;-142.13;100.00;58370.81;4963936;28;20587;-70
2021/03/18 03:24:06;;;;;;;6.65;4.07;;;;;;;-142.13;100.00;58370.81;4968003;28;20198;-70
2021/03/18 03:26:35;;;;;;;6.38;3.50;;;;;;;-142.13;100.00;58370.81;4988315;28;20198;-70
2021/03/18 03:29:02;;;;;;;5.43;3.70;;;;;;;-142.13;100.00;58370.81;4969596;28;20598;-70
2021/03/18 03:31:29;;;;;;;7.30;4.05;;;;;;;-142.13;100.00;58370.81;4970201;28;20562;-69
2021/03/18 03:34:02;;;;;;;11.80;4.15;;;;;;;-142.13;100.00;58370.81;4974095;28;20252;-70
2021/03/18 03:36:29;;;;;;;6.15;3.55;;;;;;;-142.13;100.00;58370.81;4987344;28;20494;-69
2021/03/18 03:38:56;;;;;;;7.72;4.30;;;;;;;-142.13;100.00;58370.81;4985906;28;20717;-69
2021/03/18 03:41:24;;;;;;;8.52;4.07;;;;;;;-142.13;100.00;58370.81;4987209;28;20633;-70
2021/03/18 03:43:51;;;;;;;8.85;4.40;;;;;;;-142.13;100.00;58370.81;4982840;28;20217;-70
2021/03/18 03:46:18;;;;;;;12.65;5.05;;;;;;;-142.13;100.00;58370.81;4984923;28;20645;-71
2021/03/18 03:48:49;;;;;;;8.57;4.32;;;;;;;-142.13;100.00;58370.81;4987042;28;20311;-71
2021/03/18 03:51:16;;;;;;;7.97;4.05;;;;;;;-142.13;100.00;58370.81;4988116;28;20669;-71
2021/03/18 03:53:48;;;;;;;8.27;3.95;;;;;;;-142.13;100.00;58370.81;4987386;28;20229;-71
2021/03/18 03:56:32;;;;;;;4.72;3.50;;;;;;;-142.13;100.00;58370.81;5000877;28;20468;-70
2021/03/18 03:59:18;;;;;;;12.10;4.47;;;;;;;-142.13;100.00;58370.81;4988796;28;20671;-71
2021/03/18 04:01:48;;;;;;;8.88;3.28;;;;;;;-142.13;100.00;58370.81;4984743;28;20192;-72
2021/03/18 04:04:28;;;;;;;10.23;4.28;;;;;;;-142.13;100.00;58370.81;4983128;28;20759;-72
2021/03/18 04:07:09;;;;;;;8.02;4.32;;;;;;;-142.13;100.00;58370.81;4967494;28;20324;-71
2021/03/18 04:09:42;;;;;;;7.13;3.95;;;;;;;-142.13;100.00;58370.81;4972153;28;20659;-72
2021/03/18 04:12:18;;;;;;;6.72;3.80;;;;;;;-142.13;100.00;58370.81;4966047;28;20533;-71
2021/03/18 04:14:49;;;;;;;12.52;3.95;;;;;;;-142.13;100.00;58370.81;4962676;28;20225;-71
2021/03/18 04:17:17;;;;;;;7.05;4.18;;;;;;;-142.13;100.00;58370.81;4964255;28;20276;-71
2021/03/18 04:19:48;;;;;;;9.05;4.90;;;;;;;-142.13;100.00;58370.81;4968199;28;20681;-70
2021/03/18 04:22:16;;;;;;;8.25;4.32;;;;;;;-142.13;100.00;58370.81;4968297;28;20443;-72
2021/03/18 04:24:45;;;;;;;7.00;3.78;;;;;;;-142.13;100.00;58370.81;4965955;28;20642;-70
2021/03/18 04:27:12;;;;;;;17.67;5.10;;;;;;;-142.13;100.00;58370.81;4966046;28;20647;-71
2021/03/18 04:29:41;;;;;;;8.63;4.00;;;;;;;-142.13;100.00;58370.81;4967251;28;20931;-70
2021/03/18 04:32:09;;;;;;;8.82;5.03;;;;;;;-142.13;100.00;58370.81;4951810;28;20288;-70
2021/03/18 04:34:51;;;;;;;11.52;3.78;;;;;;;-142.13;100.00;58370.81;4963487;28;20738;-70
2021/03/18 04:37:18;;;;;;;6.88;4.65;;;;;;;-142.13;100.00;58370.81;4964094;28;20677;-70
2021/03/18 04:39:46;;;;;;;6.18;3.63;;;;;;;-142.13;100.00;58370.81;4969916;28;20198;-70
2021/03/18 04:42:16;;;;;;;10.57;4.63;;;;;;;-142.13;100.00;58370.81;4973308;28;20640;-70
2021/03/18 04:44:47;;;;;;;12.07;4.50;;;;;;;-142.13;100.00;58370.81;4963075;28;20502;-70
2021/03/18 04:47:16;;;;;;;10.38;4.47;;;;;;;-142.13;100.00;58370.81;4949799;28;20711;-69
2021/03/18 04:49:46;;;;;;;9.43;4.75;;;;;;;-142.13;100.00;58370.81;4962461;28;20185;-71
2021/03/18 04:52:14;;;;;;;24.15;6.00;;;;;;;-142.13;100.00;58370.81;4948028;28;20681;-70
2021/03/18 04:54:41;;;;;;;13.48;5.22;;;;;;;-142.13;100.00;58370.81;4968602;28;20207;-70
2021/03/18 04:57:09;;;;;;;9.77;4.38;;;;;;;-142.13;100.00;58370.81;4951374;28;20224;-69
2021/03/18 04:59:37;;;;;;;7.25;4.72;;;;;;;-142.13;100.00;58370.81;4962794;28;20626;-70
2021/03/18 05:02:06;;;;;;;20.20;5.40;;;;;;;-142.13;100.00;58370.81;4960411;28;20692;-70
2021/03/18 05:04:35;;;;;;;11.93;5.22;;;;;;;-142.13;100.00;58370.81;4973000;28;20502;-70
2021/03/18 05:07:04;;;;;;;7.20;4.22;;;;;;;-142.13;100.00;58370.81;4963904;28;20571;-69
2021/03/18 05:09:32;;;;;;;11.32;4.93;;;;;;;-142.13;100.00;58370.81;4990619;28;20673;-70
2021/03/18 05:11:59;;;;;;;13.35;4.47;;;;;;;-142.13;100.00;58370.81;4987199;28;20537;-69
2021/03/18 05:14:28;;;;;;;15.63;4.97;;;;;;;-142.13;100.00;58370.81;4988627;28;20202;-69
2021/03/18 05:16:56;;;;;;;11.20;5.60;;;;;;;-142.13;100.00;58370.81;4973765;28;20587;-70
2021/03/18 05:19:24;;;;;;;8.60;5.28;;;;;;;-142.13;100.00;58370.81;4989243;28;20197;-71
2021/03/18 05:21:51;;;;;;;12.82;5.40;;;;;;;-142.13;100.00;58370.81;4992193;28;20181;-71
2021/03/18 05:24:21;;;;;;;12.07;5.78;;;;;;;-142.13;100.00;58370.81;4990602;28;20306;-70
2021/03/18 05:26:48;;;;;;;10.70;4.68;;;;;;;-142.13;100.00;58370.81;4984807;28;20543;-70
2021/03/18 05:29:17;;;;;;;18.35;5.43;;;;;;;-142.13;100.00;58370.81;4972116;28;20260;-69
2021/03/18 05:31:45;;;;;;;9.60;5.10;;;;;;;-142.13;100.00;58370.81;4969617;28;20506;-69
2021/03/18 05:34:13;;;;;;;10.65;5.13;;;;;;;-142.13;100.00;58370.81;4990229;28;20202;-71
2021/03/18 05:36:41;;;;;;;11.38;5.10;;;;;;;-142.13;100.00;58370.81;4988138;28;20661;-71
2021/03/18 05:39:09;;;;;;;14.27;5.90;;;;;;;-142.13;100.00;58370.81;4986239;28;20204;-71
2021/03/18 05:41:36;;;;;;;13.52;5.45;;;;;;;-142.13;100.00;58370.81;4987008;28;20189;-71
2021/03/18 05:44:11;;;;;;;14.38;5.63;;;;;;;-142.13;100.00;58370.81;4988880;28;20828;-71
2021/03/18 05:46:40;;;;;;;14.48;6.53;;;;;;;-142.13;100.00;58370.81;4984199;28;20285;-71
2021/03/18 05:49:12;;;;;;;11.65;6.55;;;;;;;-142.13;100.00;58370.81;4988595;28;20689;-70
2021/03/18 05:51:43;;;;;;;22.23;6.88;;;;;;;-142.13;100.00;58370.81;4967584;28;20559;-72
2021/03/18 05:54:13;;;;;;;15.40;7.45;;;;;;;-142.13;100.00;58370.81;4983599;28;20653;-71
2021/03/18 05:56:40;;;;;;;17.55;7.22;;;;;;;-142.13;100.00;58370.81;4989665;28;20533;-69
2021/03/18 05:59:07;;;;;;;14.50;6.35;;;;;;;-142.13;100.00;58370.81;4972364;28;20190;-70
2021/03/18 06:01:34;;;;;;;19.33;6.88;;;;;;;-142.13;100.00;58370.81;4972200;28;20225;-69
2021/03/18 06:04:02;;;;;;;15.55;6.55;;;;;;;-142.13;100.00;58370.81;4983610;28;20186;-69
2021/03/18 06:06:29;;;;;;;27.60;9.07;;;;;;;-142.13;100.00;58370.81;4989823;28;20297;-70
2021/03/18 06:08:57;;;;;;;15.68;8.40;;;;;;;-142.13;100.00;58370.81;4967834;28;20232;-70
2021/03/18 06:11:24;;;;;;;14.50;7.32;;;;;;;-142.13;100.00;58370.81;4988693;28;20475;-70
2021/03/18 06:13:52;;;;;;;15.30;6.80;;;;;;;-142.13;100.00;58370.81;4989600;28;20554;-69
2021/03/18 06:16:21;;;;;;;14.18;7.40;;;;;;;-142.13;100.00;58370.81;4973578;28;20213;-70
2021/03/18 06:18:49;;;;;;;12.68;7.20;;;;;;;-142.13;100.00;58370.81;4987398;28;20213;-70
2021/03/18 06:21:16;;;;;;;18.20;6.60;;;;;;;-142.13;100.00;58370.81;4987168;28;20193;-70
2021/03/18 06:24:01;;;;;;;15.35;7.22;;;;;;;-142.13;100.00;58370.81;4991023;28;20675;-70
2021/03/18 06:26:33;;;;;;;14.32;6.57;;;;;;;-142.13;100.00;58370.81;4987623;28;20573;-70
2021/03/18 06:29:01;;;;;;;11.13;5.70;;;;;;;-142.13;100.00;58370.81;4991288;28;20656;-70
2021/03/18 06:31:29;;;;;;;14.68;6.82;;;;;;;-142.13;100.00;58370.81;4987130;28;20524;-69
2021/03/18 06:33:56;;;;;;;16.17;6.93;;;;;;;-142.13;100.00;58370.81;4985915;28;20217;-69
2021/03/18 06:36:26;;;;;;;57.80;22.23;;;;;;;-142.13;100.00;58370.81;4992572;28;20504;-70
2021/03/18 06:39:06;;;;;;;16.15;7.53;;;;;;;-142.13;100.00;58370.81;4990858;28;20748;-70
2021/03/18 06:41:35;;;;;;;12.45;6.53;;;;;;;-142.13;100.00;58370.81;4986826;28;20512;-69
2021/03/18 06:44:03;;;;;;;17.85;6.07;;;;;;;-142.13;100.00;58370.81;4991550;28;20930;-71
2021/03/18 06:46:30;;;;;;;10.05;5.97;;;;;;;-142.13;100.00;58370.81;4991580;28;20189;-70
2021/03/18 06:49:10;;;;;;;13.65;6.25;;;;;;;-142.13;100.00;58370.81;4986131;28;20543;-70
2021/03/18 06:51:37;;;;;;;16.27;6.15;;;;;;;-142.13;100.00;58370.81;4987675;28;20719;-70
2021/03/18 06:54:18;;;;;;;15.48;7.38;;;;;;;-142.13;100.00;58370.81;4986091;28;20619;-70
2021/03/18 06:56:59;;;;;;;10.93;6.05;;;;;;;-142.13;100.00;58370.81;4985969;28;20186;-70
2021/03/18 06:59:29;;;;;;;10.65;6.75;;;;;;;-142.13;100.00;58370.81;4978235;28;20210;-71
2021/03/18 07:02:07;;;;;;;13.18;6.32;;;;;;;-142.13;100.00;58370.81;4995759;28;20217;-70
2021/03/18 07:04:40;;;;;;;20.23;6.18;;;;;;;-142.13;100.00;58370.81;4989715;28;20673;-71
2021/03/18 07:07:10;;;;;;;13.45;6.15;;;;;;;-142.13;100.00;58370.81;4991284;28;20221;-71
2021/03/18 07:09:40;;;;;;;10.43;5.05;;;;;;;-142.13;100.00;58370.81;4990186;28;20695;-71
2021/03/18 07:12:09;;;;;;;6.82;5.05;;;;;;;-142.13;100.00;58370.81;4982608;28;20259;-70
2021/03/18 07:14:37;;;;;;;9.95;5.05;;;;;;;-142.13;100.00;58370.81;4985844;28;20251;-70
2021/03/18 07:17:06;;;;;;;10.95;5.88;;;;;;;-142.13;100.00;58370.81;4989626;28;20307;-71
2021/03/18 07:19:33;;;;;;;6.35;3.80;;;;;;;-142.13;100.00;58370.81;4970817;28;20185;-71
2021/03/18 07:22:02;;;;;;;6.00;4.43;;;;;;;-142.13;100.00;58370.81;4987343;28;20692;-70
2021/03/18 07:24:32;;;;;;;9.25;5.43;;;;;;;-142.13;100.00;58370.81;4986155;28;20514;-70
2021/03/18 07:27:09;;;;;;;10.85;5.45;;;;;;;-142.13;100.00;58370.81;4985299;28;20222;-71
2021/03/18 07:29:39;;;;;;;12.38;7.25;;;;;;;-142.13;100.00;58370.81;4989460;28;20827;-71
2021/03/18 07:32:07;;;;;;;10.93;5.43;;;;;;;-142.13;100.00;58370.81;4982480;28;20923;-70
2021/03/18 07:34:35;;;;;;;6.53;4.40;;;;;;;-142.13;100.00;58370.81;4988931;28;20661;-71
2021/03/18 07:37:05;;;;;;;12.05;5.72;;;;;;;-142.13;100.00;58370.81;4985254;28;20649;-70
2021/03/18 07:39:32;;;;;;;12.10;5.40;;;;;;;-142.13;100.00;58370.81;4987858;28;20193;-70
2021/03/18 07:42:02;;;;;;;10.85;5.00;;;;;;;-142.13;100.00;58370.81;4989356;28;20659;-70
2021/03/18 07:44:29;;;;;;;8.32;4.80;;;;;;;-142.13;100.00;58370.81;4985634;28;20595;-70
2021/03/18 07:46:56;;;;;;;18.42;5.63;;;;;;;-142.13;100.00;58370.81;4989070;28;20343;-71
2021/03/18 07:49:27;;;;;;;15.15;4.45;;;;;;;-142.13;100.00;58370.81;4986664;28;20502;-71
2021/03/18 07:51:57;;;;;;;8.77;4.93;;;;;;;-142.13;100.00;58370.81;4991489;28;20268;-71
2021/03/18 07:54:26;;;;;;;7.50;4.27;;;;;;;-142.13;100.00;58370.81;4992528;28;21271;-71
2021/03/18 07:56:54;;;;;;;12.67;5.20;;;;;;;-142.13;100.00;58370.81;4988299;28;20830;-71
2021/03/18 07:59:30;;;;;;;15.97;5.50;;;;;;;-142.13;100.00;58370.81;4988520;28;20746;-70
2021/03/18 08:02:11;;;;;;;10.20;4.70;;;;;;;-142.13;100.00;58370.81;4987456;28;20455;-70
2021/03/18 08:04:42;;;;;;;9.13;4.47;;;;;;;-142.13;100.00;58370.81;4988795;28;20496;-71
2021/03/18 08:07:46;;;;;;;12.03;4.07;;;;;;;-142.13;100.00;58370.81;4977244;28;21015;-70
2021/03/18 08:10:15;;;;;;;5.20;3.30;;;;;;;-142.13;100.00;58370.81;4983622;28;20848;-71
2021/03/18 08:12:44;;;;;;;9.97;3.53;;;;;;;-142.13;100.00;58370.81;4981244;28;20761;-70
2021/03/18 08:15:27;;;;;;;11.43;3.00;;;;;;;-142.13;100.00;58370.81;4989874;28;20795;-71
2021/03/18 08:17:56;;;;;;;14.30;4.20;;;;;;;-142.13;100.00;58370.81;4982332;28;20463;-71
2021/03/18 08:20:59;;;;;;;6.67;4.10;;;;;;;-142.13;100.00;58370.81;4984096;28;20456;-72
2021/03/18 08:23:51;;;;;;;8.97;4.27;;;;;;;-142.13;100.00;58370.81;4985355;28;20788;-71
2021/03/18 08:26:22;;;;;;;10.30;3.93;;;;;;;-142.13;100.00;58370.81;4960112;28;20448;-71
2021/03/18 08:28:55;;;;;;;11.00;4.17;;;;;;;-142.13;100.00;58370.81;4986490;28;20471;-71
2021/03/18 08:31:25;;;;;;;7.60;3.97;;;;;;;-142.13;100.00;58370.81;4988013;28;20752;-71
2021/03/18 08:33:53;;;;;;;9.13;4.40;;;;;;;-142.13;100.00;58370.81;4988065;28;20471;-72
2021/03/18 08:36:27;;;;;;;11.33;3.90;;;;;;;-142.13;100.00;58370.81;4968977;28;21208;-70
2021/03/18 08:38:56;;;;;;;12.30;5.47;;;;;;;-142.13;100.00;58370.81;4988100;28;20799;-71
2021/03/18 08:41:27;;;;;;;8.50;4.93;;;;;;;-142.13;100.00;58370.81;4987448;28;20447;-72
2021/03/18 08:44:13;;;;;;;6.00;4.00;;;;;;;-142.13;100.00;58370.81;4991643;28;20826;-71
2021/03/18 08:46:44;;;;;;;10.47;4.33;;;;;;;-142.13;100.00;58370.81;4991170;28;20435;-71
2021/03/18 08:49:22;;;;;;;9.03;4.63;;;;;;;-142.13;100.00;58370.81;4988891;28;20441;-72
2021/03/18 08:51:49;;;;;;;11.73;4.77;;;;;;;-142.13;100.00;58370.81;4985714;28;20922;-71
2021/03/18 08:54:51;;;;;;;14.23;5.00;;;;;;;-142.13;100.00;58370.81;4974556;28;20505;-71
2021/03/18 08:57:33;;;;;;;16.63;4.83;;;;;;;-142.13;100.00;58370.81;4990378;28;20761;-70
2021/03/18 09:00:15;;;;;;;12.97;5.23;;;;;;;-142.13;100.00;58370.81;4983010;28;20535;-71
2021/03/18 09:02:46;;;;;;;8.43;4.40;;;;;;;-142.13;100.00;58370.81;4990592;28;20970;-71
2021/03/18 09:05:16;;;;;;;8.07;4.17;;;;;;;-142.13;100.00;58370.81;4991749;28;20464;-70
2021/03/18 09:07:51;;;;;;;11.00;4.03;;;;;;;-142.13;100.00;58370.81;4986497;28;20487;-71
2021/03/18 09:10:23;;;;;;;7.45;3.88;;;;;;;-142.13;100.00;58370.81;4990501;28;20444;-70
2021/03/18 09:12:53;;;;;;;8.80;4.32;;;;;;;-142.13;100.00;58370.81;4985340;28;20806;-71
2021/03/18 09:15:24;;;;;;;17.13;4.50;;;;;;;-142.13;100.00;58370.81;4991116;28;20234;-70
2021/03/18 09:17:58;;;;;;;7.27;4.23;;;;;;;-142.13;100.00;58370.81;4990845;28;20463;-71
2021/03/18 09:20:29;;;;;;;9.97;3.73;;;;;;;-142.13;100.00;58370.81;4987877;28;20428;-71
2021/03/18 09:23:09;;;;;;;8.37;3.67;;;;;;;-142.13;100.00;58370.81;4992455;28;20895;-71
2021/03/18 09:25:36;;;;;;;6.00;3.53;;;;;;;-142.13;100.00;58370.81;4990931;28;20495;-70
2021/03/18 09:28:15;;;;;;;8.30;4.30;;;;;;;-142.13;100.00;58370.81;4992908;28;20464;-71
2021/03/18 09:30:44;;;;;;;8.63;3.40;;;;;;;-142.13;100.00;58370.81;4990376;28;20563;-69
2021/03/18 09:33:25;;;;;;;7.73;3.47;;;;;;;-142.13;100.00;58370.81;4985426;28;20470;-71
2021/03/18 09:35:59;;;;;;;10.13;4.07;;;;;;;-142.13;100.00;58370.81;4976363;28;20989;-71
2021/03/18 09:38:33;;;;;;;6.60;3.03;;;;;;;-142.13;100.00;58370.81;4989656;28;20970;-71
2021/03/18 09:41:01;;;;;;;3.93;2.53;;;;;;;-142.13;100.00;58370.81;4990670;28;20919;-71
2021/03/18 09:43:30;;;;;;;5.20;3.53;;;;;;;-142.13;100.00;58370.81;4984456;28;20957;-70
2021/03/18 09:45:59;;;;;;;7.93;3.00;;;;;;;-142.13;100.00;58370.81;4991635;28;20447;-70
2021/03/18 09:48:31;;;;;;;10.67;3.20;;;;;;;-142.13;100.00;58370.81;4990915;28;20472;-71
2021/03/18 09:51:07;;;;;;;6.53;3.10;;;;;;;-142.13;100.00;58370.81;4985931;28;20436;-71
2021/03/18 09:53:35;;;;;;;8.97;3.40;;;;;;;-142.13;100.00;58370.81;4985101;28;20770;-69
2021/03/18 09:56:07;;;;;;;7.33;3.27;;;;;;;-142.13;100.00;58370.81;4985735;28;21032;-70
2021/03/18 09:58:36;;;;;;;7.70;3.53;;;;;;;-142.13;100.00;58370.81;4970903;28;20458;-71
2021/03/18 10:01:11;;;;;;;9.47;3.17;;;;;;;-142.13;100.00;58370.81;4969228;28;20447;-71
2021/03/18 10:03:51;;;;;;;8.30;3.10;;;;;;;-142.13;100.00;58370.81;4988938;28;20472;-71
2021/03/18 10:06:24;;;;;;;7.17;3.73;;;;;;;-142.13;100.00;58370.81;4990825;28;20459;-70
2021/03/18 10:09:23;;;;;;;7.03;4.27;;;;;;;-142.13;100.00;58370.81;4975305;28;20759;-71
2021/03/18 10:11:57;;;;;;;12.23;3.83;;;;;;;-142.13;100.00;58370.81;4989416;28;20503;-71
2021/03/18 10:14:30;;;;;;;7.30;3.40;;;;;;;-142.13;100.00;58370.81;4986639;28;20975;-71
2021/03/18 10:17:06;;;;;;;9.43;2.80;;;;;;;-142.13;100.00;58370.81;4987726;28;20499;-70
2021/03/18 10:19:37;;;;;;;5.97;3.10;;;;;;;-142.13;100.00;58370.81;4987523;28;20495;-71
2021/03/18 10:22:08;;;;;;;5.40;2.53;;;;;;;-142.13;100.00;58370.81;4983852;28;20960;-71
2021/03/18 10:24:35;;;;;;;9.60;3.17;;;;;;;-142.13;100.00;58370.81;4985824;28;20442;-70
2021/03/18 10:27:08;;;;;;;8.43;3.42;;;;;;;-142.13;100.00;58370.81;4984626;28;20581;-71
2021/03/18 10:29:40;;;;;;;8.63;3.50;;;;;;;-142.13;100.00;58370.81;4984070;28;20221;-70
2021/03/18 10:32:11;;;;;;;8.77;3.37;;;;;;;-142.13;100.00;58370.81;4986926;28;21028;-72
2021/03/18 10:34:40;;;;;;;10.45;3.20;;;;;;;-142.13;100.00;58370.81;4989002;28;20908;-71
2021/03/18 10:37:31;;;;;;;3.97;2.60;;;;;;;-142.13;100.00;58370.81;4991262;28;20676;-71
2021/03/18 10:40:14;;;;;;;5.57;3.10;;;;;;;-142.13;100.00;58370.81;4986969;28;20467;-72
2021/03/18 10:42:42;;;;;;;6.47;2.77;;;;;;;-142.13;100.00;58370.81;4988369;28;20683;-71
2021/03/18 10:45:14;;;;;;;9.27;2.65;;;;;;;-142.13;100.00;58370.81;4977175;28;20495;-70
2021/03/18 10:47:42;;;;;;;7.00;3.00;;;;;;;-142.13;100.00;58370.81;4983489;28;20222;-70
2021/03/18 10:50:13;;;;;;;11.03;3.87;;;;;;;-142.13;100.00;58370.81;4984308;28;20186;-70
2021/03/18 10:52:40;;;;;;;8.03;3.57;;;;;;;-142.13;100.00;58370.81;4986920;28;20869;-71
2021/03/18 10:55:08;;;;;;;6.03;3.53;;;;;;;-142.13;100.00;58370.81;4990549;28;20451;-71
2021/03/18 10:57:36;;;;;;;5.33;3.40;;;;;;;-142.13;100.00;58370.81;4966677;28;20931;-72
2021/03/18 11:00:08;;;;;;;6.68;2.97;;;;;;;-142.13;100.00;58370.81;4981478;28;20839;-71
2021/03/18 11:02:40;;;;;;;4.87;2.60;;;;;;;-142.13;100.00;58370.81;4975905;28;20304;-70
2021/03/18 11:05:08;;;;;;;6.13;2.90;;;;;;;-142.13;100.00;58370.81;4989181;28;20467;-70
2021/03/18 11:07:36;;;;;;;3.78;2.60;;;;;;;-142.13;100.00;58370.81;4988120;28;20781;-71
2021/03/18 11:10:10;;;;;;;4.70;2.28;;;;;;;-142.13;100.00;58370.81;4981672;28;20188;-70
2021/03/18 11:12:38;;;;;;;6.10;3.07;;;;;;;-142.13;100.00;58370.81;4984306;28;20220;-72
2021/03/18 11:15:06;;;;;;;3.70;2.63;;;;;;;-142.13;100.00;58370.81;4980757;28;20734;-70
2021/03/18 11:17:33;;;;;;;2.87;2.00;;;;;;;-142.13;100.00;58370.81;4966811;28;20462;-71
2021/03/18 11:20:12;;;;;;;5.20;2.63;;;;;;;-142.13;100.00;58370.81;4990538;28;20917;-70
2021/03/18 11:22:41;;;;;;;9.80;2.50;;;;;;;-142.13;100.00;58370.81;4984721;28;20770;-70
2021/03/18 11:25:09;;;;;;;7.20;2.57;;;;;;;-142.13;100.00;58370.81;4984651;28;20484;-70